Time;durP1;ratioP1;P1;durP2;ratioP2;P2;SDS_P1;SDS_P2;PMS_P1;PMS_P2;Temp;Humidity;BMP_temperature;BMP_pressure;BME280_temperature;BME280_humidity;BME280_pressure;Samples;Min_cycle;Max_cycle;Signal;HPM_P1;HPM_P2
2021/05/14 00:01:53;;;;;;;57.53;2.60;;;10.30;1.00;;;;;;5091730;28;21024;-67
2021/05/14 00:04:19;;;;;;;57.33;2.40;;;10.30;1.00;;;;;;5091870;28;20616;-66
2021/05/14 00:06:46;;;;;;;57.27;2.30;;;10.20;1.00;;;;;;5092074;28;20450;-67
2021/05/14 00:09:12;;;;;;;57.17;2.37;;;10.20;1.00;;;;;;5092358;28;20446;-67
2021/05/14 00:11:40;;;;;;;57.37;2.40;;;10.30;1.00;;;;;;5092047;28;20568;-66
2021/05/14 00:14:06;;;;;;;57.47;2.60;;;10.20;1.00;;;;;;5091588;28;20449;-67
2021/05/14 00:16:33;;;;;;;57.43;2.53;;;10.20;1.00;;;;;;5091913;28;20923;-66
2021/05/14 00:19:00;;;;;;;57.57;2.70;;;10.20;1.00;;;;;;5092047;28;20484;-66
2021/05/14 00:21:27;;;;;;;57.33;2.47;;;10.20;1.00;;;;;;5091618;28;21041;-67
2021/05/14 00:23:53;;;;;;;57.27;2.70;;;10.20;1.00;;;;;;5091560;28;20882;-66
2021/05/14 00:26:19;;;;;;;57.13;2.40;;;10.20;1.00;;;;;;5092094;28;20532;-66
2021/05/14 00:28:46;;;;;;;57.30;2.57;;;10.20;1.00;;;;;;5091263;28;20450;-66
2021/05/14 00:31:12;;;;;;;57.13;2.13;;;10.20;1.00;;;;;;5086891;28;20479;-66
2021/05/14 00:33:39;;;;;;;57.07;2.30;;;10.20;1.00;;;;;;5071033;28;20553;-66
2021/05/14 00:36:07;;;;;;;57.13;2.40;;;10.20;1.00;;;;;;5071386;28;20553;-66
2021/05/14 00:38:33;;;;;;;57.37;2.60;;;10.10;1.00;;;;;;5071695;28;20542;-66
2021/05/14 00:40:59;;;;;;;57.50;2.50;;;10.20;1.00;;;;;;5071593;28;20489;-67
2021/05/14 00:43:26;;;;;;;57.07;2.40;;;10.20;1.00;;;;;;5071173;28;20506;-66
2021/05/14 00:45:52;;;;;;;57.07;2.30;;;10.20;1.00;;;;;;5071294;28;20544;-66
2021/05/14 00:48:18;;;;;;;57.13;2.60;;;10.20;1.00;;;;;;5071429;28;20569;-66
2021/05/14 00:50:46;;;;;;;57.47;2.40;;;10.20;1.00;;;;;;5071712;28;20794;-66
2021/05/14 00:53:13;;;;;;;57.27;2.70;;;10.10;1.00;;;;;;5071310;28;20485;-67
2021/05/14 00:55:39;;;;;;;57.07;2.10;;;10.10;1.00;;;;;;5071111;28;20847;-67
2021/05/14 00:58:06;;;;;;;58.70;2.77;;;10.10;1.00;;;;;;5071403;28;20534;-67
2021/05/14 01:00:32;;;;;;;57.17;2.30;;;10.00;1.00;;;;;;5069038;28;20921;-67
2021/05/14 01:02:58;;;;;;;57.13;2.60;;;10.00;1.00;;;;;;5070781;28;20983;-67
2021/05/14 01:05:25;;;;;;;57.53;2.50;;;10.00;1.00;;;;;;5071077;28;20542;-67
2021/05/14 01:07:54;;;;;;;57.57;2.57;;;9.90;1.00;;;;;;5071383;28;20447;-68
2021/05/14 01:10:21;;;;;;;57.17;2.37;;;9.90;1.00;;;;;;5071092;28;20864;-67
2021/05/14 01:12:48;;;;;;;57.47;2.60;;;9.90;1.00;;;;;;5070739;28;20591;-67
2021/05/14 01:15:15;;;;;;;57.33;2.50;;;9.80;1.00;;;;;;5072487;28;20492;-68
2021/05/14 01:17:41;;;;;;;57.23;2.40;;;9.80;1.00;;;;;;5074968;28;20543;-66
2021/05/14 01:20:09;;;;;;;57.37;2.20;;;9.80;1.00;;;;;;5075313;28;20487;-66
2021/05/14 01:22:36;;;;;;;57.23;2.60;;;9.80;1.00;;;;;;5074756;28;20554;-66
2021/05/14 01:25:03;;;;;;;58.00;2.57;;;9.70;1.00;;;;;;5074544;28;20548;-66
2021/05/14 01:27:30;;;;;;;57.23;2.60;;;9.70;1.00;;;;;;5074937;28;20525;-66
2021/05/14 01:29:56;;;;;;;57.47;2.60;;;9.70;1.00;;;;;;5074827;28;20536;-66
2021/05/14 01:32:23;;;;;;;57.37;2.40;;;9.70;1.00;;;;;;5082990;28;20464;-66
2021/05/14 01:34:49;;;;;;;57.37;2.43;;;9.70;1.00;;;;;;5094965;28;20818;-66
2021/05/14 01:37:16;;;;;;;57.37;2.80;;;9.60;1.00;;;;;;5095049;28;20543;-66
2021/05/14 01:39:43;;;;;;;57.47;2.37;;;9.60;1.00;;;;;;5095033;28;20540;-66
2021/05/14 01:42:09;;;;;;;57.03;2.30;;;9.60;1.00;;;;;;5094503;28;20552;-66
2021/05/14 01:44:36;;;;;;;57.40;2.60;;;9.60;1.00;;;;;;5094696;28;20820;-67
2021/05/14 01:47:02;;;;;;;57.27;2.37;;;9.60;1.00;;;;;;5095058;28;20454;-66
2021/05/14 01:49:28;;;;;;;57.33;2.50;;;9.60;1.00;;;;;;5095045;28;20609;-66
2021/05/14 01:51:55;;;;;;;57.27;2.73;;;9.50;1.00;;;;;;5094175;28;21209;-67
2021/05/14 01:54:21;;;;;;;57.33;2.37;;;9.60;1.00;;;;;;5094812;28;20455;-66
2021/05/14 01:56:49;;;;;;;57.30;2.40;;;9.50;1.00;;;;;;5094713;28;20550;-67
2021/05/14 01:59:16;;;;;;;57.23;2.43;;;9.60;1.00;;;;;;5094434;28;20446;-66
2021/05/14 02:01:43;;;;;;;57.60;2.40;;;9.50;1.00;;;;;;5093477;28;20495;-66
2021/05/14 02:04:09;;;;;;;58.00;2.97;;;9.50;1.00;;;;;;5091302;28;20452;-67
2021/05/14 02:06:36;;;;;;;57.47;2.43;;;9.50;1.00;;;;;;5094410;28;20868;-66
2021/05/14 02:09:03;;;;;;;57.17;2.43;;;9.50;1.00;;;;;;5094336;28;20517;-66
2021/05/14 02:11:29;;;;;;;57.50;2.40;;;9.50;1.00;;;;;;5094241;28;20857;-66
2021/05/14 02:13:57;;;;;;;57.80;2.70;;;9.50;1.00;;;;;;5094187;28;20949;-67
2021/05/14 02:16:23;;;;;;;57.70;2.87;;;9.50;1.00;;;;;;5094454;28;20476;-67
2021/05/14 02:18:50;;;;;;;57.50;2.40;;;9.50;1.00;;;;;;5094300;28;20529;-67
2021/05/14 02:21:16;;;;;;;57.63;2.57;;;9.50;1.00;;;;;;5094130;28;21036;-66
2021/05/14 02:23:42;;;;;;;57.40;2.60;;;9.50;1.00;;;;;;5093911;28;20547;-66
2021/05/14 02:26:09;;;;;;;57.47;2.57;;;9.50;1.00;;;;;;5092835;28;20541;-66
2021/05/14 02:28:36;;;;;;;57.50;3.00;;;9.40;1.00;;;;;;5093822;28;20445;-66
2021/05/14 02:31:04;;;;;;;57.23;2.60;;;9.40;1.00;;;;;;5094154;28;20486;-66
2021/05/14 02:33:30;;;;;;;57.50;2.70;;;9.40;1.00;;;;;;5093604;28;20492;-67
2021/05/14 02:35:57;;;;;;;59.70;3.10;;;9.30;1.00;;;;;;5094102;28;20532;-66
2021/05/14 02:38:23;;;;;;;57.40;2.70;;;9.20;1.00;;;;;;5093905;28;20876;-66
2021/05/14 02:40:50;;;;;;;57.67;2.83;;;9.20;1.00;;;;;;5073206;28;20576;-66
2021/05/14 02:43:16;;;;;;;57.43;2.50;;;9.10;1.00;;;;;;5093742;28;20453;-67
2021/05/14 02:45:43;;;;;;;57.23;2.60;;;9.00;1.00;;;;;;5093673;28;20543;-67
2021/05/14 02:48:10;;;;;;;57.43;2.67;;;9.00;1.00;;;;;;5093859;28;20889;-66
2021/05/14 02:50:37;;;;;;;57.67;2.50;;;9.00;1.00;;;;;;5093429;28;21038;-67
2021/05/14 02:53:04;;;;;;;57.47;2.43;;;8.90;1.00;;;;;;5093370;28;20451;-66
2021/05/14 02:55:30;;;;;;;57.60;2.27;;;8.90;1.00;;;;;;5093293;28;20480;-66
2021/05/14 02:57:57;;;;;;;57.47;2.30;;;8.80;1.00;;;;;;5093702;28;20895;-67
2021/05/14 03:00:24;;;;;;;57.27;2.23;;;8.80;1.00;;;;;;5093379;28;20507;-67
2021/05/14 03:02:50;;;;;;;57.60;2.27;;;8.80;1.00;;;;;;5093177;28;20454;-66
2021/05/14 03:05:17;;;;;;;57.17;2.40;;;8.80;1.00;;;;;;5093188;28;20451;-66
2021/05/14 03:07:44;;;;;;;57.60;2.50;;;8.80;1.00;;;;;;5093197;28;20444;-66
2021/05/14 03:10:11;;;;;;;57.47;2.33;;;8.80;1.00;;;;;;5083820;28;20454;-66
2021/05/14 03:12:38;;;;;;;57.67;2.80;;;8.80;1.00;;;;;;5080723;28;20481;-66
2021/05/14 03:15:06;;;;;;;57.43;2.50;;;8.70;1.00;;;;;;5092986;28;20501;-66
2021/05/14 03:17:33;;;;;;;57.37;2.33;;;8.70;1.00;;;;;;5093223;28;20540;-66
2021/05/14 03:19:59;;;;;;;57.50;2.33;;;8.70;1.00;;;;;;5093591;28;20539;-67
2021/05/14 03:22:26;;;;;;;57.63;2.70;;;8.70;1.00;;;;;;5092608;28;20568;-67
2021/05/14 03:24:52;;;;;;;57.30;2.30;;;8.70;1.00;;;;;;5092523;28;20925;-66
2021/05/14 03:27:19;;;;;;;57.47;2.67;;;8.70;1.00;;;;;;5093242;28;20498;-67
2021/05/14 03:29:45;;;;;;;57.53;2.40;;;8.70;1.00;;;;;;5093212;28;20445;-67
2021/05/14 03:32:11;;;;;;;57.53;2.67;;;8.70;1.00;;;;;;5092522;28;20479;-67
2021/05/14 03:34:38;;;;;;;57.23;2.43;;;8.70;1.00;;;;;;5092527;28;20484;-67
2021/05/14 03:37:05;;;;;;;57.37;2.13;;;8.70;1.00;;;;;;5092333;28;20858;-67
2021/05/14 03:39:38;;;;;;;57.47;2.60;;;8.60;1.00;;;;;;5092881;28;20850;-67
2021/05/14 03:42:12;;;;;;;57.37;2.30;;;8.60;1.00;;;;;;5076849;28;20898;-67
2021/05/14 03:44:38;;;;;;;57.43;2.60;;;8.60;1.00;;;;;;5087411;28;20519;-66
2021/05/14 03:47:05;;;;;;;57.47;2.43;;;8.50;1.00;;;;;;5092520;28;20576;-67
2021/05/14 03:49:34;;;;;;;57.57;2.70;;;8.50;1.00;;;;;;5092801;28;21027;-68
2021/05/14 03:52:01;;;;;;;57.57;2.70;;;8.40;1.00;;;;;;5092179;28;20469;-66
2021/05/14 03:54:27;;;;;;;57.47;2.57;;;8.40;1.00;;;;;;5092360;28;20974;-66
2021/05/14 03:56:54;;;;;;;57.70;2.53;;;8.40;1.00;;;;;;5092562;28;20454;-66
2021/05/14 03:59:20;;;;;;;57.63;2.50;;;8.30;1.00;;;;;;5092272;28;20540;-66
2021/05/14 04:01:47;;;;;;;57.37;2.60;;;8.30;1.00;;;;;;5092155;28;20576;-66
2021/05/14 04:04:13;;;;;;;57.43;2.80;;;8.30;1.00;;;;;;5091607;28;20536;-67
2021/05/14 04:06:40;;;;;;;57.80;2.60;;;8.30;1.00;;;;;;5092429;28;20480;-66
2021/05/14 04:09:06;;;;;;;57.97;2.80;;;8.30;1.00;;;;;;5092250;28;20447;-66
2021/05/14 04:12:04;;;;;;;57.70;2.50;;;8.30;1.00;;;;;;5091944;28;20531;-66
2021/05/14 04:14:32;;;;;;;58.10;2.93;;;8.30;1.00;;;;;;5092157;28;20536;-67
2021/05/14 04:17:00;;;;;;;59.13;3.25;;;8.30;1.00;;;;;;5092437;28;20804;-67
2021/05/14 04:19:26;;;;;;;57.27;2.53;;;8.30;1.00;;;;;;5089292;28;20293;-66
2021/05/14 04:21:53;;;;;;;57.47;2.50;;;8.30;1.00;;;;;;5091404;28;20489;-67
2021/05/14 04:24:21;;;;;;;57.57;2.60;;;8.30;1.00;;;;;;5091861;28;20505;-66
2021/05/14 04:26:48;;;;;;;57.33;2.70;;;8.30;1.00;;;;;;5091956;28;20500;-66
2021/05/14 04:29:15;;;;;;;57.40;2.60;;;8.30;1.00;;;;;;5091778;28;20479;-66
2021/05/14 04:31:43;;;;;;;57.50;2.57;;;8.30;1.00;;;;;;5091706;28;20551;-67
2021/05/14 04:34:10;;;;;;;57.60;2.70;;;8.30;1.00;;;;;;5091563;28;20505;-66
2021/05/14 04:36:37;;;;;;;57.50;2.57;;;8.20;1.00;;;;;;5091824;28;20444;-66
2021/05/14 04:39:04;;;;;;;57.40;2.60;;;8.20;1.00;;;;;;5091483;28;20835;-67
2021/05/14 04:41:31;;;;;;;57.60;2.47;;;8.20;1.00;;;;;;5091466;28;20488;-66
2021/05/14 04:43:57;;;;;;;57.37;2.40;;;8.20;1.00;;;;;;5090937;28;20995;-67
2021/05/14 04:46:24;;;;;;;57.67;2.55;;;8.20;1.00;;;;;;5092254;28;20504;-66
2021/05/14 04:48:51;;;;;;;57.37;2.40;;;8.20;1.00;;;;;;5084105;28;20553;-66
2021/05/14 04:51:18;;;;;;;57.60;2.60;;;8.20;1.00;;;;;;5077557;28;20543;-67
2021/05/14 04:53:45;;;;;;;57.57;2.50;;;8.20;1.00;;;;;;5090931;28;20461;-66
2021/05/14 04:56:13;;;;;;;57.60;2.60;;;8.20;1.00;;;;;;5091923;28;20547;-68
2021/05/14 04:58:39;;;;;;;57.33;2.43;;;8.30;1.00;;;;;;5091374;28;20450;-66
2021/05/14 05:01:07;;;;;;;57.27;2.40;;;8.30;1.00;;;;;;5091438;28;21080;-67
2021/05/14 05:03:33;;;;;;;57.70;2.45;;;8.20;1.00;;;;;;5090791;28;20538;-66
2021/05/14 05:06:02;;;;;;;57.53;2.30;;;8.30;1.00;;;;;;5091728;28;20650;-67
2021/05/14 05:08:28;;;;;;;57.50;2.40;;;8.30;1.00;;;;;;5091466;28;20443;-67
2021/05/14 05:10:55;;;;;;;57.75;2.58;;;8.40;1.00;;;;;;5091087;28;20265;-67
2021/05/14 05:13:21;;;;;;;57.37;2.50;;;8.40;1.00;;;;;;5091370;28;20207;-66
2021/05/14 05:15:47;;;;;;;57.33;2.33;;;8.40;1.00;;;;;;5091041;28;20443;-66
2021/05/14 05:18:14;;;;;;;57.77;2.90;;;8.50;1.00;;;;;;5091153;28;20502;-66
2021/05/14 05:20:40;;;;;;;57.37;2.40;;;8.50;1.00;;;;;;5087551;28;20556;-66
2021/05/14 05:23:07;;;;;;;57.37;2.50;;;8.50;1.00;;;;;;5090920;28;20540;-67
2021/05/14 05:25:34;;;;;;;57.40;2.40;;;8.60;1.00;;;;;;5090852;28;20451;-66
2021/05/14 05:28:00;;;;;;;57.70;2.77;;;8.60;1.00;;;;;;5091203;28;20540;-66
2021/05/14 05:30:27;;;;;;;57.43;2.60;;;8.60;1.00;;;;;;5090922;28;20535;-67
2021/05/14 05:32:54;;;;;;;57.72;2.60;;;8.60;1.00;;;;;;5091016;28;20452;-66
2021/05/14 05:35:21;;;;;;;57.13;2.37;;;8.70;1.00;;;;;;5091116;28;20236;-66
2021/05/14 05:37:48;;;;;;;57.40;2.43;;;8.70;1.00;;;;;;5091062;28;20534;-66
2021/05/14 05:40:15;;;;;;;57.37;2.67;;;8.80;1.00;;;;;;5090811;28;20479;-66
2021/05/14 05:42:42;;;;;;;57.17;2.30;;;8.80;1.00;;;;;;5091157;28;20451;-66
2021/05/14 05:45:08;;;;;;;57.57;2.70;;;8.90;1.00;;;;;;5090977;28;20461;-66
2021/05/14 05:47:35;;;;;;;57.50;2.80;;;8.90;1.00;;;;;;5091171;28;20538;-67
2021/05/14 05:50:02;;;;;;;57.17;2.50;;;9.00;1.00;;;;;;5090034;28;20451;-66
2021/05/14 05:52:29;;;;;;;57.33;2.47;;;9.10;1.00;;;;;;5087864;28;20730;-67
2021/05/14 05:54:55;;;;;;;57.40;2.33;;;9.10;1.00;;;;;;5091038;28;20952;-67
2021/05/14 05:57:23;;;;;;;57.60;2.70;;;9.20;1.00;;;;;;5091183;28;20446;-67
2021/05/14 05:59:49;;;;;;;57.07;2.47;;;9.30;1.00;;;;;;5090805;28;21021;-66
2021/05/14 06:02:15;;;;;;;56.93;2.40;;;9.30;1.00;;;;;;5093555;28;20492;-67
2021/05/14 06:04:42;;;;;;;57.50;2.50;;;9.50;1.00;;;;;;5094507;28;20540;-67
2021/05/14 06:07:08;;;;;;;57.17;2.50;;;9.50;1.00;;;;;;5094239;28;20642;-66
2021/05/14 06:09:35;;;;;;;56.97;2.40;;;9.60;1.00;;;;;;5094329;28;21012;-67
2021/05/14 06:12:01;;;;;;;57.13;2.40;;;9.70;1.00;;;;;;5094106;28;20510;-66
2021/05/14 06:14:28;;;;;;;57.37;2.40;;;9.80;1.00;;;;;;5094482;28;20937;-66
2021/05/14 06:16:54;;;;;;;57.27;2.67;;;9.90;1.00;;;;;;5094218;28;20445;-66
2021/05/14 06:19:25;;;;;;;57.87;2.50;;;10.00;1.00;;;;;;5094317;28;20626;-66
2021/05/14 06:21:51;;;;;;;58.27;2.87;;;10.10;1.00;;;;;;5092079;28;20491;-66
2021/05/14 06:24:18;;;;;;;57.30;2.50;;;10.10;1.00;;;;;;5093168;28;21135;-66
2021/05/14 06:26:45;;;;;;;56.97;2.40;;;10.20;1.00;;;;;;5094131;28;20459;-66
2021/05/14 06:29:12;;;;;;;56.97;2.40;;;10.30;1.00;;;;;;5094465;28;20917;-66
2021/05/14 06:31:40;;;;;;;57.20;2.40;;;10.40;1.00;;;;;;5094363;28;20885;-66
2021/05/14 06:34:07;;;;;;;57.40;2.40;;;10.50;1.00;;;;;;5093585;28;20445;-66
2021/05/14 06:36:33;;;;;;;57.10;2.23;;;10.60;1.00;;;;;;5094124;28;20509;-66
2021/05/14 06:39:00;;;;;;;57.27;2.33;;;10.70;1.00;;;;;;5094379;28;20449;-66
2021/05/14 06:41:27;;;;;;;57.27;2.50;;;10.80;1.00;;;;;;5094197;28;20569;-66
2021/05/14 06:43:53;;;;;;;57.40;2.50;;;10.90;1.00;;;;;;5093755;28;20504;-67
2021/05/14 06:46:19;;;;;;;57.17;2.30;;;10.90;1.00;;;;;;5093784;28;20478;-66
2021/05/14 06:48:47;;;;;;;57.17;2.43;;;11.00;1.00;;;;;;5093939;28;20539;-66
2021/05/14 06:51:13;;;;;;;57.10;2.40;;;11.10;1.00;;;;;;5094030;28;20465;-66
2021/05/14 06:53:40;;;;;;;57.37;2.73;;;11.20;1.00;;;;;;5093629;28;20485;-66
2021/05/14 06:56:07;;;;;;;57.13;2.50;;;11.30;1.00;;;;;;5092234;28;20453;-66
2021/05/14 06:58:33;;;;;;;57.60;2.40;;;11.40;1.00;;;;;;5093820;28;20898;-66
2021/05/14 07:01:00;;;;;;;56.97;2.30;;;11.50;1.00;;;;;;5093548;28;20606;-66
2021/05/14 07:03:26;;;;;;;57.50;2.60;;;11.60;1.00;;;;;;5093177;28;21002;-66
2021/05/14 07:05:53;;;;;;;59.23;2.80;;;11.80;1.00;;;;;;5093596;28;20504;-66
2021/05/14 07:08:20;;;;;;;57.13;2.40;;;11.90;1.00;;;;;;5093902;28;20451;-66
2021/05/14 07:10:46;;;;;;;56.97;2.40;;;12.00;1.00;;;;;;5093494;28;20564;-66
2021/05/14 07:13:12;;;;;;;57.20;2.40;;;12.10;1.00;;;;;;5092349;28;20450;-66
2021/05/14 07:15:39;;;;;;;57.37;2.60;;;12.10;1.00;;;;;;5093202;28;20449;-66
2021/05/14 07:18:05;;;;;;;57.20;2.40;;;12.10;1.00;;;;;;5093398;28;20488;-66
2021/05/14 07:20:33;;;;;;;57.40;2.30;;;12.10;1.00;;;;;;5092933;28;20530;-67
2021/05/14 07:23:00;;;;;;;57.13;2.40;;;12.30;1.00;;;;;;5092850;28;20608;-66
2021/05/14 07:25:26;;;;;;;57.37;2.40;;;12.40;1.00;;;;;;5093142;28;20485;-66
2021/05/14 07:27:53;;;;;;;58.87;2.70;;;12.50;1.00;;;;;;5093290;28;20545;-66
2021/05/14 07:30:20;;;;;;;57.03;2.30;;;12.50;1.00;;;;;;5092934;28;20446;-66
2021/05/14 07:32:46;;;;;;;57.13;2.50;;;12.60;1.00;;;;;;5092589;28;20882;-67
2021/05/14 07:35:13;;;;;;;57.20;2.40;;;12.80;1.00;;;;;;5093025;28;20541;-66
2021/05/14 07:37:40;;;;;;;56.90;2.10;;;12.90;1.00;;;;;;5092992;28;20450;-66
2021/05/14 07:40:09;;;;;;;57.10;2.20;;;13.00;1.00;;;;;;5093338;28;20525;-66
2021/05/14 07:42:35;;;;;;;57.10;2.30;;;13.10;1.00;;;;;;5092409;28;20582;-66
2021/05/14 07:45:02;;;;;;;57.10;2.30;;;13.20;1.00;;;;;;5092521;28;20454;-66
2021/05/14 07:47:28;;;;;;;57.10;2.10;;;13.30;1.00;;;;;;5093187;28;20865;-66
2021/05/14 07:49:55;;;;;;;56.97;2.10;;;13.30;1.00;;;;;;5092705;28;20446;-66
2021/05/14 07:52:21;;;;;;;57.20;2.20;;;13.40;1.00;;;;;;5090193;28;20465;-66
2021/05/14 07:54:47;;;;;;;57.23;2.40;;;13.50;1.00;;;;;;5091303;28;20951;-66
2021/05/14 07:57:15;;;;;;;57.33;2.40;;;13.60;1.00;;;;;;5092552;28;20494;-67
2021/05/14 07:59:41;;;;;;;57.27;2.40;;;13.80;1.00;;;;;;5089887;28;20486;-66
2021/05/14 08:02:07;;;;;;;56.93;2.37;;;14.00;1.00;;;;;;5091963;28;20922;-66
2021/05/14 08:04:34;;;;;;;57.17;2.43;;;14.20;1.00;;;;;;5092302;28;20984;-66
2021/05/14 08:07:00;;;;;;;57.33;2.47;;;14.50;1.00;;;;;;5092320;28;20452;-66
2021/05/14 08:09:26;;;;;;;57.17;2.40;;;14.70;1.00;;;;;;5092309;28;20533;-66
2021/05/14 08:11:53;;;;;;;57.17;2.43;;;14.90;1.00;;;;;;5091658;28;20608;-67
2021/05/14 08:14:20;;;;;;;57.17;2.50;;;15.00;1.00;;;;;;5092404;28;20446;-66
2021/05/14 08:16:47;;;;;;;57.10;2.37;;;15.20;1.00;;;;;;5092292;28;20479;-67
2021/05/14 08:19:13;;;;;;;57.07;2.20;;;15.60;1.00;;;;;;5092105;28;20538;-67
2021/05/14 08:21:41;;;;;;;57.10;2.20;;;15.90;1.00;;;;;;5092118;28;20553;-66
2021/05/14 08:24:09;;;;;;;57.37;2.20;;;16.10;1.00;;;;;;5091642;28;20452;-66
2021/05/14 08:26:36;;;;;;;57.10;2.10;;;16.20;1.00;;;;;;5091921;28;20529;-66
2021/05/14 08:29:02;;;;;;;56.97;2.50;;;16.30;1.00;;;;;;5091631;28;20833;-66
2021/05/14 08:31:32;;;;;;;57.27;2.23;;;16.30;1.00;;;;;;5073829;28;20554;-67
2021/05/14 08:33:58;;;;;;;57.40;2.20;;;16.30;1.00;;;;;;5089993;28;20452;-67
2021/05/14 08:36:25;;;;;;;57.17;2.33;;;16.30;1.00;;;;;;5092092;28;20521;-66
2021/05/14 08:38:51;;;;;;;57.13;2.50;;;16.20;1.00;;;;;;5091829;28;20553;-66
2021/05/14 08:41:19;;;;;;;57.40;2.40;;;16.10;1.00;;;;;;5091918;28;20482;-68
2021/05/14 08:43:46;;;;;;;57.30;2.40;;;15.90;1.00;;;;;;5091156;28;20513;-66
2021/05/14 08:46:14;;;;;;;57.17;2.47;;;15.70;1.00;;;;;;5092108;28;20483;-66
2021/05/14 08:48:42;;;;;;;57.07;2.30;;;15.70;1.00;;;;;;5091826;28;20443;-66
2021/05/14 08:51:09;;;;;;;57.30;2.50;;;15.80;1.00;;;;;;5091568;28;20490;-66
2021/05/14 08:53:37;;;;;;;57.30;2.30;;;16.20;1.00;;;;;;5090991;28;20455;-67
2021/05/14 08:56:04;;;;;;;56.90;2.27;;;16.60;1.00;;;;;;5091217;28;20543;-66
2021/05/14 08:58:30;;;;;;;56.77;2.20;;;17.00;1.00;;;;;;5091582;28;20448;-67
2021/05/14 09:00:57;;;;;;;57.13;2.30;;;17.40;1.00;;;;;;5090701;28;20491;-66
2021/05/14 09:03:23;;;;;;;57.13;2.13;;;17.50;1.00;;;;;;5088666;28;20535;-67
2021/05/14 09:05:53;;;;;;;57.43;2.27;;;17.40;1.00;;;;;;5091295;28;20449;-66
2021/05/14 09:08:27;;;;;;;57.10;2.13;;;17.20;1.00;;;;;;5091385;28;20454;-67
2021/05/14 09:10:53;;;;;;;56.83;2.00;;;16.90;1.00;;;;;;5091017;28;20475;-66
2021/05/14 09:13:20;;;;;;;56.87;2.10;;;16.70;1.00;;;;;;5091066;28;20949;-67
2021/05/14 09:15:46;;;;;;;56.93;2.10;;;16.60;1.00;;;;;;5091100;28;20448;-66
2021/05/14 09:18:15;;;;;;;57.67;2.20;;;16.50;1.00;;;;;;5091144;28;20448;-66
2021/05/14 09:20:44;;;;;;;56.93;2.10;;;16.60;1.00;;;;;;5091080;28;21043;-67
2021/05/14 09:23:26;;;;;;;57.00;2.20;;;16.70;1.00;;;;;;5090976;28;20455;-67
2021/05/14 09:25:54;;;;;;;56.57;2.00;;;16.80;1.00;;;;;;5091397;28;20448;-66
2021/05/14 09:28:25;;;;;;;57.17;2.00;;;16.90;1.00;;;;;;5083903;28;20445;-67
2021/05/14 09:31:09;;;;;;;56.97;2.30;;;17.30;1.00;;;;;;5079301;28;20884;-67
2021/05/14 09:33:37;;;;;;;56.67;2.30;;;17.70;1.00;;;;;;5090613;28;20547;-67
2021/05/14 09:36:05;;;;;;;57.10;2.30;;;18.00;1.00;;;;;;5092637;28;20505;-67
2021/05/14 09:38:44;;;;;;;56.93;2.10;;;18.30;1.00;;;;;;5094836;28;20581;-67
2021/05/14 09:41:27;;;;;;;57.20;2.23;;;18.50;1.00;;;;;;5095140;28;20481;-67
2021/05/14 09:43:55;;;;;;;57.10;2.30;;;18.60;1.00;;;;;;5094385;28;20974;-66
2021/05/14 09:46:30;;;;;;;57.17;2.20;;;18.40;1.00;;;;;;5094804;28;20453;-66
2021/05/14 09:48:58;;;;;;;56.87;2.17;;;18.10;1.00;;;;;;5095465;28;20476;-67
2021/05/14 09:51:25;;;;;;;56.83;2.20;;;17.80;1.00;;;;;;5094719;28;20557;-66
2021/05/14 09:53:53;;;;;;;56.70;2.07;;;17.50;1.00;;;;;;5094133;28;20445;-67
2021/05/14 09:56:27;;;;;;;56.83;2.10;;;17.30;1.00;;;;;;5094652;28;20889;-66
2021/05/14 09:58:59;;;;;;;56.60;2.20;;;17.00;1.00;;;;;;5094473;28;20447;-69
2021/05/14 10:01:27;;;;;;;56.87;2.23;;;16.80;1.00;;;;;;5094134;28;20479;-67
2021/05/14 10:03:55;;;;;;;56.97;2.27;;;16.50;1.00;;;;;;5094150;28;20511;-67
2021/05/14 10:06:23;;;;;;;56.87;2.20;;;16.20;1.00;;;;;;5094622;28;20448;-66
2021/05/14 10:08:51;;;;;;;57.23;2.27;;;15.80;1.00;;;;;;5094504;28;20451;-67
2021/05/14 10:11:22;;;;;;;57.07;2.30;;;15.40;1.00;;;;;;5094460;28;20998;-67
2021/05/14 10:13:51;;;;;;;57.00;2.20;;;15.10;1.00;;;;;;5094038;28;20446;-67
2021/05/14 10:16:17;;;;;;;57.13;2.20;;;14.90;1.00;;;;;;5094303;28;20978;-68
2021/05/14 10:18:47;;;;;;;57.17;2.13;;;14.80;1.00;;;;;;5094348;28;20486;-66
2021/05/14 10:21:15;;;;;;;57.20;2.20;;;14.90;1.00;;;;;;5094256;28;20479;-67
2021/05/14 10:23:45;;;;;;;57.07;2.17;;;15.80;1.00;;;;;;5093973;28;20443;-66
2021/05/14 10:26:13;;;;;;;57.00;2.20;;;17.40;1.00;;;;;;5094573;28;20459;-67
2021/05/14 10:28:45;;;;;;;56.97;2.10;;;18.90;1.00;;;;;;5094256;28;20450;-67
2021/05/14 10:31:22;;;;;;;56.77;2.20;;;19.60;1.00;;;;;;5090879;28;20470;-67
2021/05/14 10:33:50;;;;;;;56.77;2.00;;;20.20;1.00;;;;;;5093201;28;20455;-67
2021/05/14 10:36:50;;;;;;;57.07;2.10;;;21.40;1.00;;;;;;5094208;28;20868;-68
2021/05/14 10:39:20;;;;;;;57.70;2.27;;;23.00;1.00;;;;;;5091887;28;20519;-67
2021/05/14 10:41:49;;;;;;;56.87;1.97;;;24.40;1.00;;;;;;5093950;28;20485;-66
2021/05/14 10:44:16;;;;;;;57.17;2.00;;;25.10;1.00;;;;;;5093447;28;20534;-66
2021/05/14 10:46:44;;;;;;;57.10;2.00;;;25.60;1.00;;;;;;5093492;28;20477;-67
2021/05/14 10:49:12;;;;;;;57.30;2.03;;;25.90;1.00;;;;;;5093261;28;20450;-67
2021/05/14 10:52:01;;;;;;;56.90;2.00;;;26.30;1.00;;;;;;5093769;28;20464;-66
2021/05/14 10:54:52;;;;;;;57.10;1.90;;;25.80;1.00;;;;;;5093396;28;21023;-67
2021/05/14 10:57:50;;;;;;;56.63;2.00;;;24.90;1.00;;;;;;5093841;28;20482;-66
2021/05/14 11:00:32;;;;;;;57.30;2.13;;;23.80;1.00;;;;;;5093584;28;20542;-67
2021/05/14 11:03:15;;;;;;;57.00;2.40;;;22.80;1.00;;;;;;5080999;28;20979;-67
2021/05/14 11:05:43;;;;;;;56.83;2.00;;;21.70;1.00;;;;;;5072898;28;20512;-67
2021/05/14 11:08:09;;;;;;;56.83;2.10;;;20.80;1.00;;;;;;5073414;28;20454;-66
2021/05/14 11:10:37;;;;;;;56.80;2.30;;;19.70;1.00;;;;;;5072796;28;20505;-67
2021/05/14 11:13:35;;;;;;;57.70;2.50;;;18.80;1.00;;;;;;5072696;28;20443;-66
2021/05/14 11:16:38;;;;;;;57.70;3.20;;;17.80;1.00;;;;;;5072746;28;21016;-66
2021/05/14 11:19:24;;;;;;;57.30;2.40;;;16.70;1.00;;;;;;5073087;28;20450;-67
2021/05/14 11:22:11;;;;;;;57.27;2.20;;;15.70;1.00;;;;;;5072390;28;20579;-68
2021/05/14 11:24:42;;;;;;;57.37;2.40;;;14.60;1.00;;;;;;5072435;28;20498;-67
2021/05/14 11:27:12;;;;;;;58.07;2.30;;;14.00;1.00;;;;;;5072629;28;20483;-67
2021/05/14 11:29:43;;;;;;;57.37;2.30;;;13.60;1.00;;;;;;5072777;28;20447;-68
2021/05/14 11:32:38;;;;;;;57.53;2.27;;;13.30;1.00;;;;;;5072123;28;21016;-67
2021/05/14 11:35:13;;;;;;;57.43;2.30;;;13.20;1.00;;;;;;5087714;28;20458;-68
2021/05/14 11:37:43;;;;;;;57.27;2.33;;;13.30;1.00;;;;;;5072727;28;20453;-68
2021/05/14 11:40:15;;;;;;;57.87;2.70;;;13.60;1.00;;;;;;5072622;28;20482;-68
2021/05/14 11:42:44;;;;;;;57.70;2.93;;;13.90;1.00;;;;;;5072331;28;20586;-68
2021/05/14 11:45:16;;;;;;;57.30;2.30;;;14.20;1.00;;;;;;5072311;28;20451;-67
2021/05/14 11:47:52;;;;;;;57.37;2.27;;;14.50;1.00;;;;;;5072428;28;20448;-68
2021/05/14 11:50:30;;;;;;;57.30;2.30;;;15.00;1.00;;;;;;5072384;28;20453;-67
2021/05/14 11:52:56;;;;;;;57.30;2.30;;;16.30;1.00;;;;;;5072113;28;20957;-67
2021/05/14 11:55:23;;;;;;;57.60;2.67;;;17.70;1.00;;;;;;5071733;28;20454;-68
2021/05/14 11:57:51;;;;;;;56.97;2.27;;;19.80;1.00;;;;;;5072061;28;21014;-67
2021/05/14 12:00:26;;;;;;;57.30;2.30;;;21.50;1.00;;;;;;5071751;28;20493;-65
2021/05/14 12:02:53;;;;;;;57.47;2.60;;;22.40;1.00;;;;;;5071513;28;20998;-65
2021/05/14 12:05:21;;;;;;;58.00;2.30;;;22.80;1.00;;;;;;5078542;28;20927;-66
2021/05/14 12:07:48;;;;;;;56.97;1.80;;;23.70;1.00;;;;;;5092091;28;20496;-66
2021/05/14 12:10:17;;;;;;;56.93;1.90;;;25.10;1.00;;;;;;5092143;28;20480;-66
2021/05/14 12:12:43;;;;;;;56.97;1.90;;;25.70;1.00;;;;;;5091672;28;20954;-67
2021/05/14 12:15:19;;;;;;;57.20;2.20;;;25.10;1.00;;;;;;5091832;28;20569;-66
2021/05/14 12:17:48;;;;;;;57.00;1.93;;;25.30;1.00;;;;;;5092139;28;20446;-67
2021/05/14 12:20:34;;;;;;;56.90;2.00;;;26.00;1.00;;;;;;5090397;28;20491;-67
2021/05/14 12:23:03;;;;;;;56.83;2.00;;;26.80;1.00;;;;;;5089860;28;20479;-66
2021/05/14 12:25:40;;;;;;;56.70;2.00;;;27.40;1.00;;;;;;5090041;28;20908;-67
2021/05/14 12:28:28;;;;;;;56.80;1.90;;;27.70;1.00;;;;;;5090289;28;20445;-66
2021/05/14 12:30:54;;;;;;;56.47;1.83;;;28.30;1.00;;;;;;5090417;28;20466;-67
2021/05/14 12:33:21;;;;;;;56.97;1.90;;;28.50;1.00;;;;;;5089615;28;20442;-66
2021/05/14 12:35:56;;;;;;;56.63;1.70;;;28.30;1.00;;;;;;5089178;28;20488;-67
2021/05/14 12:38:38;;;;;;;56.47;1.83;;;28.20;1.00;;;;;;5091667;28;20442;-67
2021/05/14 12:41:18;;;;;;;56.57;1.80;;;28.20;1.00;;;;;;5091465;28;20476;-67
2021/05/14 12:43:44;;;;;;;56.87;1.90;;;28.10;1.00;;;;;;5091493;28;20505;-67
2021/05/14 12:46:10;;;;;;;56.57;1.90;;;28.40;1.00;;;;;;5091973;28;20456;-66
2021/05/14 12:48:37;;;;;;;56.47;1.80;;;28.70;1.00;;;;;;5091635;28;20512;-66
2021/05/14 12:51:04;;;;;;;56.27;1.63;;;29.40;1.00;;;;;;5091561;28;20554;-66
2021/05/14 12:53:31;;;;;;;56.53;1.80;;;30.00;1.00;;;;;;5091464;28;20473;-66
2021/05/14 12:55:57;;;;;;;56.67;1.80;;;30.30;1.00;;;;;;5091808;28;20446;-67
2021/05/14 12:58:23;;;;;;;56.47;1.77;;;30.50;1.00;;;;;;5091725;28;20442;-66